Time;durP1;ratioP1;P1;durP2;ratioP2;P2;SDS_P1;SDS_P2;PMS_P1;PMS_P2;Temp;Humidity;BMP_temperature;BMP_pressure;BME280_temperature;BME280_humidity;BME280_pressure;Samples;Min_cycle;Max_cycle;Signal;HPM_P1;HPM_P2
2023/08/13 00:02:03;;;;;;;3.55;2.72;;;;;;;;;;5004251;28;20221;-75
2023/08/13 00:04:31;;;;;;;2.85;2.35;;;;;;;;;;5022277;28;20224;-74
2023/08/13 00:06:56;;;;;;;3.08;2.78;;;;;;;;;;5012050;28;20233;-75
2023/08/13 00:09:26;;;;;;;3.67;2.22;;;;;;;;;;5004327;28;20230;-74
2023/08/13 00:11:53;;;;;;;2.63;2.42;;;;;;;;;;4979000;28;20220;-75
2023/08/13 00:14:19;;;;;;;2.80;2.30;;;;;;;;;;5011077;28;20209;-74
2023/08/13 00:16:44;;;;;;;1.80;1.70;;;;;;;;;;4995616;28;20236;-74
2023/08/13 00:19:13;;;;;;;4.38;2.20;;;;;;;;;;5026890;28;20239;-75
2023/08/13 00:21:43;;;;;;;4.88;2.22;;;;;;;;;;5012854;28;20217;-74
2023/08/13 00:24:11;;;;;;;2.60;2.35;;;;;;;;;;4991076;28;20217;-74
2023/08/13 00:26:42;;;;;;;2.38;2.08;;;;;;;;;;5008386;28;20224;-74
2023/08/13 00:29:10;;;;;;;2.15;1.95;;;;;;;;;;5020965;28;20303;-74
2023/08/13 00:31:36;;;;;;;2.25;2.00;;;;;;;;;;4983939;28;20657;-74
2023/08/13 00:34:09;;;;;;;3.05;2.05;;;;;;;;;;5006825;28;20212;-74
2023/08/13 00:36:37;;;;;;;2.05;1.80;;;;;;;;;;5040620;28;20225;-74
2023/08/13 00:39:05;;;;;;;2.50;2.25;;;;;;;;;;5025728;28;20309;-74
2023/08/13 00:41:32;;;;;;;2.35;2.15;;;;;;;;;;5018701;28;20238;-74
2023/08/13 00:44:00;;;;;;;3.70;1.85;;;;;;;;;;4985181;28;20244;-74
2023/08/13 00:46:28;;;;;;;2.90;2.22;;;;;;;;;;4987804;28;20304;-74
2023/08/13 00:48:58;;;;;;;2.85;2.00;;;;;;;;;;5011155;28;20266;-74
2023/08/13 00:51:27;;;;;;;2.78;2.10;;;;;;;;;;4994199;28;20224;-75
2023/08/13 00:53:53;;;;;;;2.65;2.20;;;;;;;;;;5011219;28;20586;-75
2023/08/13 00:56:21;;;;;;;2.80;2.60;;;;;;;;;;5008648;28;20224;-74
2023/08/13 00:58:46;;;;;;;2.67;2.40;;;;;;;;;;5010093;28;20228;-74
2023/08/13 01:01:15;;;;;;;3.40;2.58;;;;;;;;;;5010705;28;20212;-74
2023/08/13 01:03:47;;;;;;;3.83;2.60;;;;;;;;;;4995330;28;20270;-75
2023/08/13 01:06:17;;;;;;;3.40;2.80;;;;;;;;;;5004135;28;20228;-75
2023/08/13 01:08:59;;;;;;;4.35;2.58;;;;;;;;;;5011142;28;20262;-74
2023/08/13 01:11:31;;;;;;;2.72;2.40;;;;;;;;;;5015643;28;20227;-74
2023/08/13 01:14:08;;;;;;;8.98;2.75;;;;;;;;;;5001069;28;20247;-74
2023/08/13 01:16:34;;;;;;;4.55;2.55;;;;;;;;;;4994919;28;20231;-74
2023/08/13 01:19:04;;;;;;;2.40;1.98;;;;;;;;;;4983791;28;20610;-74
2023/08/13 01:21:29;;;;;;;2.55;2.22;;;;;;;;;;5002118;28;20220;-74
2023/08/13 01:23:57;;;;;;;2.08;1.85;;;;;;;;;;4989076;28;20212;-74
2023/08/13 01:26:23;;;;;;;5.07;2.10;;;;;;;;;;5003849;28;20229;-74
2023/08/13 01:29:01;;;;;;;3.30;2.10;;;;;;;;;;5010242;28;20215;-74
2023/08/13 01:31:35;;;;;;;3.15;1.90;;;;;;;;;;4985227;28;20224;-74
2023/08/13 01:34:01;;;;;;;5.25;2.00;;;;;;;;;;4993764;28;20242;-74
2023/08/13 01:36:30;;;;;;;2.50;2.10;;;;;;;;;;5020823;28;20638;-74
2023/08/13 01:38:58;;;;;;;1.95;1.85;;;;;;;;;;4980244;28;20216;-73
2023/08/13 01:41:26;;;;;;;2.95;2.15;;;;;;;;;;5008895;28;20299;-74
2023/08/13 01:43:54;;;;;;;3.92;2.40;;;;;;;;;;5010800;28;20236;-74
2023/08/13 01:46:26;;;;;;;2.50;2.30;;;;;;;;;;5009054;28;20220;-74
2023/08/13 01:48:52;;;;;;;3.10;2.55;;;;;;;;;;4971249;28;20204;-74
2023/08/13 01:51:22;;;;;;;2.58;2.38;;;;;;;;;;4987426;28;20271;-75
2023/08/13 01:53:50;;;;;;;2.42;2.22;;;;;;;;;;5008788;28;20227;-74
2023/08/13 01:56:18;;;;;;;3.92;2.67;;;;;;;;;;4988654;28;20223;-74
2023/08/13 01:58:49;;;;;;;2.58;2.38;;;;;;;;;;5005472;28;20213;-74
2023/08/13 02:01:19;;;;;;;3.45;2.03;;;;;;;;;;5001281;28;20243;-75
2023/08/13 02:03:49;;;;;;;2.05;1.95;;;;;;;;;;5010879;28;20681;-74
2023/08/13 02:06:15;;;;;;;3.03;2.03;;;;;;;;;;5003509;28;20226;-74
2023/08/13 02:08:43;;;;;;;3.92;2.33;;;;;;;;;;5008956;28;20685;-75
2023/08/13 02:11:11;;;;;;;2.33;2.13;;;;;;;;;;4985068;28;20554;-74
2023/08/13 02:13:43;;;;;;;4.05;2.55;;;;;;;;;;5005362;28;20267;-74
2023/08/13 02:16:09;;;;;;;2.38;2.03;;;;;;;;;;5010248;28;20338;-74
2023/08/13 02:18:35;;;;;;;2.50;2.28;;;;;;;;;;5007958;28;20224;-74
2023/08/13 02:21:03;;;;;;;2.83;2.42;;;;;;;;;;5002988;28;20694;-74
2023/08/13 02:23:33;;;;;;;4.43;2.38;;;;;;;;;;4969138;28;20247;-74
2023/08/13 02:25:58;;;;;;;2.50;2.30;;;;;;;;;;5006725;28;20235;-74
2023/08/13 02:28:24;;;;;;;4.85;2.35;;;;;;;;;;4984898;28;20285;-74
2023/08/13 02:30:51;;;;;;;2.88;2.47;;;;;;;;;;4989823;28;20215;-74
2023/08/13 02:33:19;;;;;;;3.97;2.80;;;;;;;;;;4988091;28;20220;-74
2023/08/13 02:35:45;;;;;;;2.60;2.40;;;;;;;;;;5004176;28;20224;-74
2023/08/13 02:38:10;;;;;;;2.85;2.35;;;;;;;;;;4983318;28;20224;-74
2023/08/13 02:40:38;;;;;;;2.75;2.30;;;;;;;;;;5033612;28;20236;-74
2023/08/13 02:43:06;;;;;;;3.05;2.40;;;;;;;;;;4987550;28;20953;-75
2023/08/13 02:45:32;;;;;;;2.40;2.20;;;;;;;;;;4987346;28;20507;-74
2023/08/13 02:47:58;;;;;;;3.40;2.15;;;;;;;;;;4985340;28;20267;-74
2023/08/13 02:50:31;;;;;;;2.47;2.28;;;;;;;;;;4984746;28;20223;-74
2023/08/13 02:53:00;;;;;;;4.55;2.17;;;;;;;;;;5009599;28;20217;-74
2023/08/13 02:55:26;;;;;;;2.30;2.10;;;;;;;;;;5001171;28;20231;-74
2023/08/13 02:57:53;;;;;;;4.03;2.58;;;;;;;;;;4976899;28;20223;-73
2023/08/13 03:00:19;;;;;;;3.40;2.30;;;;;;;;;;5002036;28;20222;-74
2023/08/13 03:02:44;;;;;;;3.17;2.45;;;;;;;;;;5008390;28;20591;-74
2023/08/13 03:05:12;;;;;;;2.47;2.28;;;;;;;;;;5000119;28;20216;-74
2023/08/13 03:07:40;;;;;;;2.72;2.53;;;;;;;;;;5025198;28;20208;-74
2023/08/13 03:10:06;;;;;;;3.80;2.63;;;;;;;;;;5007873;28;20666;-74
2023/08/13 03:12:31;;;;;;;2.30;2.10;;;;;;;;;;4986644;28;20267;-74
2023/08/13 03:14:59;;;;;;;4.95;2.50;;;;;;;;;;4998416;28;20223;-74
2023/08/13 03:17:27;;;;;;;2.88;2.55;;;;;;;;;;5001321;28;20220;-74
2023/08/13 03:19:53;;;;;;;2.72;2.45;;;;;;;;;;5000394;28;20212;-73
2023/08/13 03:22:21;;;;;;;3.17;2.90;;;;;;;;;;5020901;28;20255;-74
2023/08/13 03:24:46;;;;;;;3.45;3.13;;;;;;;;;;4985343;28;20225;-74
2023/08/13 03:27:14;;;;;;;3.80;2.90;;;;;;;;;;5000169;28;20216;-75
2023/08/13 03:29:40;;;;;;;3.00;2.30;;;;;;;;;;4984912;28;20303;-74
2023/08/13 03:32:11;;;;;;;3.28;2.92;;;;;;;;;;4987929;28;20212;-75
2023/08/13 03:34:37;;;;;;;2.83;2.63;;;;;;;;;;4966619;28;20212;-74
2023/08/13 03:37:02;;;;;;;4.35;3.25;;;;;;;;;;4989647;28;20235;-75
2023/08/13 03:39:31;;;;;;;3.00;2.70;;;;;;;;;;5016464;28;20224;-75
2023/08/13 03:41:56;;;;;;;4.90;3.05;;;;;;;;;;4998228;28;20208;-74
2023/08/13 03:44:22;;;;;;;5.93;4.25;;;;;;;;;;4990324;28;20210;-75
2023/08/13 03:46:47;;;;;;;5.00;3.30;;;;;;;;;;5012596;28;20596;-74
2023/08/13 03:49:15;;;;;;;7.22;3.53;;;;;;;;;;5010545;28;20225;-74
2023/08/13 03:51:41;;;;;;;7.45;3.88;;;;;;;;;;5028020;28;20655;-74
2023/08/13 03:54:11;;;;;;;14.57;3.63;;;;;;;;;;5028332;28;20212;-74
2023/08/13 03:56:36;;;;;;;23.92;3.60;;;;;;;;;;5011410;28;20236;-74
2023/08/13 03:59:07;;;;;;;51.13;4.90;;;;;;;;;;5004125;28;20608;-74
2023/08/13 04:05:23;;;;;;;63.90;5.28;;;;;;;;;;5019145;28;20354;-74
2023/08/13 04:07:54;;;;;;;52.10;5.55;;;;;;;;;;5002280;28;20225;-74
2023/08/13 04:10:21;;;;;;;10.90;4.30;;;;;;;;;;5013160;28;20601;-74
2023/08/13 04:12:49;;;;;;;16.13;5.50;;;;;;;;;;5006652;28;20227;-75
2023/08/13 04:15:17;;;;;;;11.02;4.43;;;;;;;;;;5009825;28;20647;-74
2023/08/13 04:17:44;;;;;;;12.45;4.55;;;;;;;;;;5011081;28;20621;-74
2023/08/13 04:20:14;;;;;;;13.35;5.25;;;;;;;;;;5004575;28;20226;-74
2023/08/13 04:22:45;;;;;;;16.10;4.68;;;;;;;;;;4997305;28;20619;-74
2023/08/13 04:25:13;;;;;;;6.05;4.40;;;;;;;;;;5004293;28;20246;-74
2023/08/13 04:27:41;;;;;;;20.58;4.53;;;;;;;;;;5011626;28;20208;-74
2023/08/13 04:30:14;;;;;;;12.15;4.18;;;;;;;;;;5023393;28;20279;-74
2023/08/13 04:32:41;;;;;;;16.77;3.63;;;;;;;;;;4995921;28;20227;-75
2023/08/13 04:35:09;;;;;;;4.90;3.60;;;;;;;;;;5000994;28;20224;-74
2023/08/13 04:37:34;;;;;;;15.38;4.25;;;;;;;;;;5002409;28;20231;-74
2023/08/13 04:40:03;;;;;;;20.92;4.18;;;;;;;;;;5004021;28;20212;-74
2023/08/13 04:42:32;;;;;;;10.90;4.03;;;;;;;;;;5010160;28;20236;-75
2023/08/13 04:44:57;;;;;;;6.82;3.85;;;;;;;;;;4988315;28;20331;-74
2023/08/13 04:47:25;;;;;;;3.90;3.58;;;;;;;;;;5003916;28;20223;-75
2023/08/13 04:49:56;;;;;;;4.80;3.38;;;;;;;;;;5001977;28;20284;-74
2023/08/13 04:52:22;;;;;;;3.70;3.40;;;;;;;;;;5020794;28;20263;-74
2023/08/13 04:54:47;;;;;;;3.25;2.95;;;;;;;;;;5003562;28;20212;-74
2023/08/13 04:57:16;;;;;;;3.50;3.17;;;;;;;;;;5012469;28;20720;-74
2023/08/13 04:59:47;;;;;;;3.90;3.60;;;;;;;;;;4988671;28;20274;-75
2023/08/13 05:02:12;;;;;;;3.58;3.28;;;;;;;;;;5006530;28;20220;-74
2023/08/13 05:04:41;;;;;;;4.28;3.83;;;;;;;;;;4996548;28;20235;-74
2023/08/13 05:07:10;;;;;;;3.83;3.58;;;;;;;;;;5020949;28;20212;-74
2023/08/13 05:09:36;;;;;;;3.85;3.55;;;;;;;;;;5006550;28;20279;-74
2023/08/13 05:12:02;;;;;;;7.53;4.00;;;;;;;;;;5003797;28;20312;-74
2023/08/13 05:14:31;;;;;;;5.70;3.53;;;;;;;;;;4987083;28;20213;-75
2023/08/13 05:16:57;;;;;;;4.57;4.18;;;;;;;;;;5011958;28;20215;-75
2023/08/13 05:19:24;;;;;;;4.32;3.92;;;;;;;;;;4987755;28;20240;-74
2023/08/13 05:21:50;;;;;;;4.63;3.97;;;;;;;;;;5024506;28;20303;-73
2023/08/13 05:24:19;;;;;;;6.60;4.43;;;;;;;;;;4988977;28;20315;-74
2023/08/13 05:26:46;;;;;;;6.63;4.35;;;;;;;;;;5005183;28;20461;-74
2023/08/13 05:29:16;;;;;;;5.65;4.60;;;;;;;;;;4989113;28;20602;-75
2023/08/13 05:31:45;;;;;;;4.85;4.40;;;;;;;;;;5019779;28;20275;-75
2023/08/13 05:34:13;;;;;;;8.05;4.70;;;;;;;;;;4983857;28;20303;-75
2023/08/13 05:36:39;;;;;;;6.93;4.85;;;;;;;;;;4984065;28;20217;-75
2023/08/13 05:39:07;;;;;;;6.78;5.15;;;;;;;;;;5004156;28;20216;-75
2023/08/13 05:41:35;;;;;;;5.53;4.85;;;;;;;;;;5004852;28;20205;-74
2023/08/13 05:44:03;;;;;;;5.05;4.53;;;;;;;;;;5023567;28;20292;-75
2023/08/13 05:46:32;;;;;;;7.38;4.93;;;;;;;;;;5014223;28;20225;-74
2023/08/13 05:48:58;;;;;;;9.65;5.22;;;;;;;;;;4993371;28;20230;-75
2023/08/13 05:51:23;;;;;;;5.78;5.22;;;;;;;;;;4986071;28;20216;-75
2023/08/13 05:53:51;;;;;;;9.85;4.85;;;;;;;;;;4988223;28;20221;-75
2023/08/13 05:56:17;;;;;;;5.90;5.30;;;;;;;;;;5019106;28;20216;-75
2023/08/13 05:58:43;;;;;;;5.63;5.13;;;;;;;;;;5011689;28;20689;-74
2023/08/13 06:01:09;;;;;;;5.20;4.70;;;;;;;;;;5008850;23;20221;-83
2023/08/13 06:03:39;;;;;;;6.07;5.22;;;;;;;;;;4999690;28;20238;-83
2023/08/13 06:06:04;;;;;;;6.78;5.45;;;;;;;;;;4999279;28;20233;-83
2023/08/13 06:08:30;;;;;;;6.13;4.82;;;;;;;;;;4999216;28;20228;-86
2023/08/13 06:10:56;;;;;;;6.32;4.43;;;;;;;;;;5015006;28;20212;-82
2023/08/13 06:13:21;;;;;;;8.25;4.68;;;;;;;;;;4996942;28;20220;-84
2023/08/13 06:15:47;;;;;;;7.22;4.03;;;;;;;;;;5000950;28;20224;-85
2023/08/13 06:18:14;;;;;;;5.03;4.38;;;;;;;;;;4991845;28;20234;-82
2023/08/13 06:20:40;;;;;;;5.90;3.65;;;;;;;;;;4996522;28;20216;-82
2023/08/13 06:23:08;;;;;;;7.38;3.50;;;;;;;;;;4995099;28;20216;-83
2023/08/13 06:25:33;;;;;;;8.48;4.07;;;;;;;;;;4979988;28;20223;-84
2023/08/13 06:28:04;;;;;;;7.32;3.95;;;;;;;;;;5003564;28;20282;-84
2023/08/13 06:30:29;;;;;;;7.32;3.63;;;;;;;;;;4979925;28;20228;-85
2023/08/13 06:32:57;;;;;;;5.13;3.33;;;;;;;;;;5001355;28;20216;-84
2023/08/13 06:35:25;;;;;;;4.38;2.70;;;;;;;;;;5005571;28;20230;-87
2023/08/13 06:37:53;;;;;;;5.10;2.90;;;;;;;;;;4985588;28;20233;-84
2023/08/13 06:40:21;;;;;;;5.63;2.83;;;;;;;;;;5008101;28;20225;-85
2023/08/13 06:42:49;;;;;;;6.20;3.05;;;;;;;;;;5014668;28;20307;-85
2023/08/13 06:45:17;;;;;;;3.95;2.50;;;;;;;;;;5006844;28;20223;-84
2023/08/13 06:47:47;;;;;;;3.63;2.55;;;;;;;;;;4972386;28;20594;-82
2023/08/13 06:50:13;;;;;;;4.93;2.78;;;;;;;;;;5014826;28;20227;-87
2023/08/13 06:52:38;;;;;;;3.97;2.63;;;;;;;;;;5000408;28;20224;-84
2023/08/13 06:55:09;;;;;;;5.07;2.40;;;;;;;;;;4999598;28;20217;-84
2023/08/13 06:57:34;;;;;;;2.85;2.50;;;;;;;;;;4982310;28;20234;-84
2023/08/13 07:00:02;;;;;;;4.60;2.75;;;;;;;;;;4994332;28;20212;-80
2023/08/13 07:02:30;;;;;;;6.80;3.28;;;;;;;;;;4991444;28;20228;-83
2023/08/13 07:04:58;;;;;;;5.63;3.10;;;;;;;;;;4996840;28;20318;-81
2023/08/13 07:07:23;;;;;;;4.30;2.63;;;;;;;;;;4995107;28;20221;-81
2023/08/13 07:09:49;;;;;;;6.53;3.45;;;;;;;;;;4985224;28;20224;-81
2023/08/13 07:12:14;;;;;;;3.83;2.67;;;;;;;;;;5005759;28;20224;-80
2023/08/13 07:14:42;;;;;;;5.05;2.88;;;;;;;;;;5005465;28;20224;-81
2023/08/13 07:17:14;;;;;;;4.50;2.85;;;;;;;;;;4998230;28;20235;-81
2023/08/13 07:19:47;;;;;;;3.83;2.60;;;;;;;;;;5003658;28;20216;-85
2023/08/13 07:22:15;;;;;;;5.32;3.00;;;;;;;;;;4999581;28;20228;-82
2023/08/13 07:24:43;;;;;;;5.55;2.90;;;;;;;;;;5021215;28;20243;-82
2023/08/13 07:27:12;;;;;;;7.75;2.65;;;;;;;;;;4967503;28;20778;-84
2023/08/13 07:29:37;;;;;;;5.30;2.40;;;;;;;;;;4997519;28;20306;-80
2023/08/13 07:32:05;;;;;;;4.72;2.17;;;;;;;;;;4992957;28;20216;-80
2023/08/13 07:34:41;;;;;;;3.58;2.20;;;;;;;;;;4994260;28;20285;-80
2023/08/13 07:37:07;;;;;;;4.07;2.20;;;;;;;;;;4988400;28;20227;-78
2023/08/13 07:39:32;;;;;;;4.70;2.10;;;;;;;;;;4998329;28;20621;-81
2023/08/13 07:42:03;;;;;;;5.18;2.30;;;;;;;;;;5017936;28;20213;-82
2023/08/13 07:44:28;;;;;;;4.07;2.15;;;;;;;;;;4983433;28;20220;-83
2023/08/13 07:46:58;;;;;;;3.95;1.90;;;;;;;;;;4985837;28;20222;-85
2023/08/13 07:49:26;;;;;;;7.68;2.30;;;;;;;;;;4994109;28;20227;-79
2023/08/13 07:51:52;;;;;;;9.48;2.30;;;;;;;;;;4999399;28;20216;-79
2023/08/13 07:54:26;;;;;;;5.07;1.88;;;;;;;;;;5002628;28;20293;-78
2023/08/13 07:56:54;;;;;;;4.22;1.98;;;;;;;;;;5000444;28;20313;-78
2023/08/13 07:59:24;;;;;;;5.75;2.28;;;;;;;;;;4987420;28;20220;-77
2023/08/13 08:01:57;;;;;;;3.05;1.70;;;;;;;;;;5011795;28;20223;-77
2023/08/13 08:04:22;;;;;;;8.52;2.25;;;;;;;;;;4976180;28;20717;-78
2023/08/13 08:06:48;;;;;;;3.42;1.90;;;;;;;;;;4982074;28;20226;-77
2023/08/13 08:09:13;;;;;;;4.38;1.95;;;;;;;;;;5009370;28;20227;-78
2023/08/13 08:11:41;;;;;;;5.97;2.50;;;;;;;;;;4994064;28;20230;-79
2023/08/13 08:14:07;;;;;;;4.78;1.73;;;;;;;;;;5004870;28;20229;-80
2023/08/13 08:16:34;;;;;;;4.47;2.22;;;;;;;;;;4996205;28;20601;-77
2023/08/13 08:19:04;;;;;;;4.25;2.05;;;;;;;;;;4986833;28;20228;-76
2023/08/13 08:21:31;;;;;;;5.88;2.00;;;;;;;;;;4989846;28;20235;-78
2023/08/13 08:23:56;;;;;;;4.97;1.90;;;;;;;;;;5021604;28;20331;-78
2023/08/13 08:26:24;;;;;;;6.47;1.88;;;;;;;;;;5012553;28;20278;-77
2023/08/13 08:28:50;;;;;;;7.00;1.95;;;;;;;;;;5013807;28;20221;-77
2023/08/13 08:31:16;;;;;;;5.43;1.92;;;;;;;;;;5008203;28;20778;-79
2023/08/13 08:33:41;;;;;;;5.95;2.13;;;;;;;;;;5012746;28;20223;-78
2023/08/13 08:36:07;;;;;;;5.20;1.70;;;;;;;;;;4997223;28;20632;-79
2023/08/13 08:38:32;;;;;;;3.70;1.55;;;;;;;;;;4995268;28;20302;-79
2023/08/13 08:40:59;;;;;;;2.72;1.60;;;;;;;;;;5016125;28;20274;-80
2023/08/13 08:43:27;;;;;;;2.95;1.38;;;;;;;;;;4997981;28;20295;-78
2023/08/13 08:45:52;;;;;;;3.33;1.42;;;;;;;;;;4998750;28;20220;-79
2023/08/13 08:48:22;;;;;;;3.60;1.85;;;;;;;;;;5001448;28;20224;-78
2023/08/13 08:50:50;;;;;;;12.73;1.80;;;;;;;;;;4999127;28;20216;-78
2023/08/13 08:53:18;;;;;;;3.70;1.60;;;;;;;;;;5009050;28;20995;-78
2023/08/13 08:55:43;;;;;;;2.03;1.50;;;;;;;;;;4996138;28;20239;-78
2023/08/13 08:58:11;;;;;;;3.55;1.30;;;;;;;;;;4995946;28;20229;-78
2023/08/13 09:00:39;;;;;;;2.88;1.15;;;;;;;;;;4997936;28;20236;-79
2023/08/13 09:03:04;;;;;;;2.83;1.25;;;;;;;;;;4996579;28;20220;-79
2023/08/13 09:05:31;;;;;;;2.60;1.30;;;;;;;;;;5029948;28;20252;-77
2023/08/13 09:07:56;;;;;;;3.05;1.35;;;;;;;;;;4973050;28;20208;-78
2023/08/13 09:10:24;;;;;;;7.18;1.55;;;;;;;;;;5011470;28;20224;-80
2023/08/13 09:12:52;;;;;;;8.50;1.60;;;;;;;;;;4976268;28;20235;-77
2023/08/13 09:15:20;;;;;;;2.30;1.70;;;;;;;;;;4992314;28;20254;-78
2023/08/13 09:17:45;;;;;;;3.83;1.60;;;;;;;;;;4992082;28;20236;-77
2023/08/13 09:20:20;;;;;;;4.00;1.40;;;;;;;;;;5001853;28;20230;-78
2023/08/13 09:22:50;;;;;;;3.60;1.35;;;;;;;;;;4986336;28;20219;-78
2023/08/13 09:25:16;;;;;;;4.53;1.48;;;;;;;;;;5001161;28;20228;-77
2023/08/13 09:27:44;;;;;;;3.72;1.70;;;;;;;;;;4998422;28;20207;-78
2023/08/13 09:30:12;;;;;;;2.85;1.48;;;;;;;;;;4994788;28;20219;-78
2023/08/13 09:32:38;;;;;;;2.67;1.50;;;;;;;;;;4996046;28;20220;-77
2023/08/13 09:35:04;;;;;;;2.30;1.33;;;;;;;;;;4995906;28;20231;-78
2023/08/13 09:37:29;;;;;;;4.47;1.50;;;;;;;;;;4978351;28;20232;-78
2023/08/13 09:39:58;;;;;;;2.92;1.40;;;;;;;;;;5014220;28;20277;-78
2023/08/13 09:42:24;;;;;;;3.10;1.45;;;;;;;;;;4994958;28;20255;-78
2023/08/13 09:44:51;;;;;;;4.32;1.75;;;;;;;;;;4988978;28;20627;-78
2023/08/13 09:47:18;;;;;;;3.03;1.60;;;;;;;;;;4993734;28;20703;-78
2023/08/13 09:49:43;;;;;;;3.03;1.23;;;;;;;;;;4986152;28;20238;-78
2023/08/13 09:52:11;;;;;;;2.30;1.08;;;;;;;;;;4990087;28;20681;-78
2023/08/13 09:54:42;;;;;;;2.35;1.45;;;;;;;;;;4993689;28;20237;-80
2023/08/13 09:57:08;;;;;;;2.75;1.20;;;;;;;;;;5012656;28;20768;-78
2023/08/13 09:59:36;;;;;;;4.43;1.10;;;;;;;;;;4992546;28;20228;-77
2023/08/13 10:02:08;;;;;;;2.33;1.15;;;;;;;;;;4977411;28;20247;-79
2023/08/13 10:04:37;;;;;;;2.38;1.17;;;;;;;;;;5003798;28;20228;-78
2023/08/13 10:07:03;;;;;;;1.83;1.05;;;;;;;;;;4995719;28;20813;-79
2023/08/13 10:09:29;;;;;;;2.08;1.20;;;;;;;;;;4995839;28;20220;-79
2023/08/13 10:11:54;;;;;;;2.78;1.02;;;;;;;;;;4992769;28;20228;-78
2023/08/13 10:14:20;;;;;;;2.38;1.13;;;;;;;;;;4992117;28;20270;-78
2023/08/13 10:16:50;;;;;;;1.15;1.05;;;;;;;;;;4998020;28;20620;-79
2023/08/13 10:19:17;;;;;;;3.05;1.30;;;;;;;;;;4994779;28;20243;-79
2023/08/13 10:21:42;;;;;;;1.73;0.90;;;;;;;;;;4994707;28;20224;-78
2023/08/13 10:24:13;;;;;;;2.03;0.88;;;;;;;;;;5002675;28;20222;-79
2023/08/13 10:26:42;;;;;;;2.03;0.85;;;;;;;;;;5013616;28;20681;-79
2023/08/13 10:29:24;;;;;;;1.50;1.00;;;;;;;;;;5019795;28;20254;-78
2023/08/13 10:32:10;;;;;;;1.65;0.88;;;;;;;;;;5006364;28;20219;-80
2023/08/13 10:34:50;;;;;;;2.42;1.10;;;;;;;;;;5014163;28;20283;-78
2023/08/13 10:37:16;;;;;;;2.38;1.13;;;;;;;;;;5019770;28;20223;-79
2023/08/13 10:39:41;;;;;;;1.20;1.00;;;;;;;;;;5019577;28;20916;-78
2023/08/13 10:42:26;;;;;;;1.67;1.08;;;;;;;;;;4992090;28;20227;-77
2023/08/13 10:44:52;;;;;;;2.88;0.90;;;;;;;;;;5012818;28;20228;-80
2023/08/13 10:47:20;;;;;;;1.45;0.90;;;;;;;;;;5035958;28;20212;-79
2023/08/13 10:49:46;;;;;;;1.67;0.90;;;;;;;;;;5027678;28;20227;-78
2023/08/13 10:52:13;;;;;;;1.50;0.73;;;;;;;;;;4989820;28;20234;-80
2023/08/13 10:54:39;;;;;;;1.08;0.90;;;;;;;;;;4994793;28;20252;-80
2023/08/13 10:57:04;;;;;;;2.72;0.93;;;;;;;;;;4994939;28;20376;-81
2023/08/13 10:59:31;;;;;;;1.63;0.77;;;;;;;;;;4994573;28;20705;-79
2023/08/13 11:02:16;;;;;;;1.50;0.75;;;;;;;;;;4994595;28;20247;-79
2023/08/13 11:04:44;;;;;;;0.68;0.60;;;;;;;;;;5001281;28;20696;-79
2023/08/13 11:07:13;;;;;;;2.10;1.08;;;;;;;;;;4993534;28;20251;-78
2023/08/13 11:09:38;;;;;;;2.05;0.90;;;;;;;;;;5032939;28;20220;-80
2023/08/13 11:12:07;;;;;;;2.75;1.00;;;;;;;;;;4993455;28;20208;-79
2023/08/13 11:14:33;;;;;;;1.10;0.88;;;;;;;;;;4994753;28;20232;-81
2023/08/13 11:17:02;;;;;;;2.25;0.80;;;;;;;;;;4994143;28;20213;-79
2023/08/13 11:19:27;;;;;;;1.02;0.80;;;;;;;;;;5000589;28;20253;-81
2023/08/13 11:21:54;;;;;;;2.47;0.85;;;;;;;;;;4993038;28;20208;-78
2023/08/13 11:24:22;;;;;;;0.73;0.73;;;;;;;;;;4992318;28;20239;-81
2023/08/13 11:26:49;;;;;;;1.65;0.90;;;;;;;;;;5008897;28;20226;-79
2023/08/13 11:29:18;;;;;;;0.95;0.73;;;;;;;;;;4999313;28;20783;-80
2023/08/13 11:31:45;;;;;;;2.10;0.88;;;;;;;;;;4994492;28;20204;-78
2023/08/13 11:34:10;;;;;;;1.88;0.95;;;;;;;;;;4982887;28;20236;-77
2023/08/13 11:36:36;;;;;;;1.30;0.70;;;;;;;;;;5007834;28;20208;-79
2023/08/13 11:39:03;;;;;;;0.88;0.80;;;;;;;;;;4979414;28;20239;-79
2023/08/13 11:41:31;;;;;;;1.00;0.60;;;;;;;;;;4997430;28;20215;-78
2023/08/13 11:43:56;;;;;;;2.00;0.90;;;;;;;;;;4978310;28;20251;-79
2023/08/13 11:46:24;;;;;;;1.63;0.80;;;;;;;;;;5005897;28;20220;-78
2023/08/13 11:48:56;;;;;;;0.93;0.60;;;;;;;;;;5003714;28;20737;-78
2023/08/13 11:51:25;;;;;;;3.03;1.00;;;;;;;;;;5015646;28;20256;-77
2023/08/13 11:53:53;;;;;;;2.90;0.90;;;;;;;;;;4994221;28;20280;-79
2023/08/13 11:56:19;;;;;;;1.00;0.68;;;;;;;;;;5008213;28;20224;-80
2023/08/13 11:58:48;;;;;;;4.22;0.93;;;;;;;;;;4998220;28;20779;-79
2023/08/13 12:01:13;;;;;;;1.33;0.77;;;;;;;;;;5035316;28;20243;-79
2023/08/13 12:03:43;;;;;;;2.45;0.82;;;;;;;;;;4998772;28;20233;-80
2023/08/13 12:06:08;;;;;;;1.17;0.82;;;;;;;;;;4995568;28;20215;-79
2023/08/13 12:08:34;;;;;;;0.75;0.65;;;;;;;;;;5003050;28;20585;-80
2023/08/13 12:11:00;;;;;;;1.08;0.65;;;;;;;;;;5016785;28;20219;-80
2023/08/13 12:13:26;;;;;;;1.25;0.90;;;;;;;;;;5014820;28;20280;-79
2023/08/13 12:15:51;;;;;;;0.50;0.50;;;;;;;;;;5006560;28;20212;-79
2023/08/13 12:18:20;;;;;;;1.80;0.90;;;;;;;;;;5013358;28;20259;-79
2023/08/13 12:20:47;;;;;;;0.95;0.75;;;;;;;;;;4999589;28;20299;-79
2023/08/13 12:23:13;;;;;;;1.05;0.60;;;;;;;;;;5013023;28;20220;-78
2023/08/13 12:25:39;;;;;;;3.55;0.68;;;;;;;;;;5018124;28;20932;-79
2023/08/13 12:28:07;;;;;;;0.40;0.40;;;;;;;;;;5016599;28;20250;-79
2023/08/13 12:30:37;;;;;;;0.98;0.77;;;;;;;;;;5024915;28;20244;-79
2023/08/13 12:33:02;;;;;;;2.30;1.00;;;;;;;;;;5036215;28;20232;-79
2023/08/13 12:35:28;;;;;;;1.30;1.00;;;;;;;;;;4992423;28;20678;-79
2023/08/13 12:37:54;;;;;;;1.35;0.80;;;;;;;;;;5011348;28;20263;-78
2023/08/13 12:40:23;;;;;;;1.80;0.85;;;;;;;;;;5005565;28;20234;-77
2023/08/13 12:42:56;;;;;;;1.83;0.82;;;;;;;;;;5013155;28;20223;-77
2023/08/13 12:45:21;;;;;;;1.13;0.90;;;;;;;;;;4997136;28;20220;-80
2023/08/13 12:47:47;;;;;;;0.88;0.68;;;;;;;;;;5007846;28;20245;-78
2023/08/13 12:50:12;;;;;;;1.02;0.60;;;;;;;;;;4987056;28;20228;-78
2023/08/13 12:52:38;;;;;;;3.22;0.80;;;;;;;;;;5014908;28;20220;-80
2023/08/13 12:55:06;;;;;;;1.73;0.90;;;;;;;;;;5033162;28;20225;-79
2023/08/13 12:57:34;;;;;;;1.02;0.85;;;;;;;;;;4992612;28;20225;-79
2023/08/13 12:59:59;;;;;;;0.80;0.80;;;;;;;;;;5004505;28;20701;-78
2023/08/13 13:02:25;;;;;;;2.65;0.95;;;;;;;;;;5015179;28;20224;-79
2023/08/13 13:04:51;;;;;;;4.25;1.10;;;;;;;;;;5015011;28;20688;-81
2023/08/13 13:07:16;;;;;;;2.08;0.80;;;;;;;;;;5014422;28;20238;-79
2023/08/13 13:09:46;;;;;;;1.00;0.73;;;;;;;;;;5014287;28;20688;-79
2023/08/13 13:12:12;;;;;;;1.40;1.08;;;;;;;;;;5019165;28;20243;-78
2023/08/13 13:14:40;;;;;;;1.95;0.90;;;;;;;;;;5015434;28;20224;-78
2023/08/13 13:17:05;;;;;;;3.95;0.85;;;;;;;;;;5028383;28;20216;-76
2023/08/13 13:19:33;;;;;;;1.15;0.70;;;;;;;;;;5013602;28;20255;-78
2023/08/13 13:21:59;;;;;;;2.05;0.85;;;;;;;;;;4995943;28;20224;-78
2023/08/13 13:24:26;;;;;;;1.10;0.85;;;;;;;;;;4999121;28;20248;-77
2023/08/13 13:26:52;;;;;;;1.90;1.00;;;;;;;;;;5001005;28;20308;-77
2023/08/13 13:29:17;;;;;;;1.65;0.80;;;;;;;;;;5010376;28;20220;-78
2023/08/13 13:31:44;;;;;;;1.27;0.70;;;;;;;;;;5001048;28;20231;-79
2023/08/13 13:34:20;;;;;;;2.92;0.80;;;;;;;;;;4998204;28;20232;-78
2023/08/13 13:36:46;;;;;;;5.13;0.82;;;;;;;;;;4986057;28;20240;-78
2023/08/13 13:39:11;;;;;;;1.60;0.80;;;;;;;;;;4999116;28;20228;-79
2023/08/13 13:41:39;;;;;;;1.58;0.90;;;;;;;;;;5016339;28;20224;-80
2023/08/13 13:44:05;;;;;;;2.03;1.15;;;;;;;;;;5015327;28;20225;-79
2023/08/13 13:46:33;;;;;;;2.03;0.70;;;;;;;;;;5008967;28;20678;-79
2023/08/13 13:48:59;;;;;;;1.25;0.70;;;;;;;;;;4990246;28;20208;-78
2023/08/13 13:51:27;;;;;;;5.65;0.85;;;;;;;;;;4993204;28;20270;-79
2023/08/13 13:53:53;;;;;;;2.20;0.93;;;;;;;;;;4988695;28;20232;-80
2023/08/13 13:56:19;;;;;;;1.27;0.80;;;;;;;;;;4992419;28;20228;-78
2023/08/13 13:58:44;;;;;;;2.13;0.90;;;;;;;;;;4994680;28;20313;-78
2023/08/13 14:01:15;;;;;;;2.70;1.00;;;;;;;;;;5002003;28;20226;-77
2023/08/13 14:03:43;;;;;;;1.83;0.95;;;;;;;;;;5002629;28;20241;-78
2023/08/13 14:06:09;;;;;;;2.72;0.70;;;;;;;;;;5013163;28;20701;-78
2023/08/13 14:08:34;;;;;;;3.15;0.80;;;;;;;;;;5020947;28;20222;-78
2023/08/13 14:11:00;;;;;;;2.47;0.90;;;;;;;;;;5014952;28;20235;-79
2023/08/13 14:13:28;;;;;;;1.30;0.80;;;;;;;;;;5019067;28;20236;-78
2023/08/13 14:15:58;;;;;;;1.27;0.95;;;;;;;;;;5003465;28;20217;-78
2023/08/13 14:18:23;;;;;;;2.10;0.77;;;;;;;;;;5010091;28;20591;-78
2023/08/13 14:20:50;;;;;;;1.90;0.80;;;;;;;;;;5004329;28;20223;-78
2023/08/13 14:23:18;;;;;;;2.15;0.85;;;;;;;;;;5000275;28;20232;-78
2023/08/13 14:25:46;;;;;;;1.73;0.73;;;;;;;;;;5018750;28;20238;-79
2023/08/13 14:28:11;;;;;;;1.65;0.82;;;;;;;;;;5000574;28;20213;-79
2023/08/13 14:30:42;;;;;;;2.67;0.75;;;;;;;;;;4989877;28;20220;-79
2023/08/13 14:33:07;;;;;;;1.67;0.80;;;;;;;;;;4978280;28;20696;-81
2023/08/13 14:35:33;;;;;;;3.67;0.90;;;;;;;;;;5007311;28;20219;-78
2023/08/13 14:37:59;;;;;;;1.80;0.80;;;;;;;;;;5022837;28;20224;-79
2023/08/13 14:40:25;;;;;;;2.13;0.88;;;;;;;;;;4997505;28;20227;-78
2023/08/13 14:42:51;;;;;;;2.95;0.90;;;;;;;;;;5024696;28;20223;-77
2023/08/13 14:45:17;;;;;;;3.50;1.00;;;;;;;;;;5014256;28;20231;-78
2023/08/13 14:47:44;;;;;;;1.75;0.70;;;;;;;;;;5016593;28;20247;-78
2023/08/13 14:50:10;;;;;;;3.42;0.80;;;;;;;;;;4999460;28;20609;-78